createdAt,value
2023-02-18T00:02:18.116Z,11.40
2023-02-18T00:05:06.550Z,10.63
2023-02-18T00:07:39.406Z,11.03
2023-02-18T00:10:11.944Z,10.63
2023-02-18T00:12:39.591Z,10.57
2023-02-18T00:15:07.588Z,11.07
2023-02-18T00:17:34.683Z,11.23
2023-02-18T00:20:01.961Z,11.87
2023-02-18T00:22:29.514Z,10.77
2023-02-18T00:24:56.565Z,10.53
2023-02-18T00:27:23.800Z,11.43
2023-02-18T00:29:50.982Z,11.03
2023-02-18T00:32:18.208Z,11.67
2023-02-18T00:34:45.355Z,11.43
2023-02-18T00:37:12.458Z,11.93
2023-02-18T00:39:39.543Z,11.40
2023-02-18T00:42:06.676Z,11.10
2023-02-18T00:44:52.570Z,10.80
2023-02-18T00:47:20.456Z,11.00
2023-02-18T00:49:47.701Z,10.57
2023-02-18T00:52:14.833Z,11.03
2023-02-18T00:54:42.000Z,10.63
2023-02-18T00:57:09.059Z,10.60
2023-02-18T00:59:36.234Z,10.23
2023-02-18T01:02:03.340Z,10.73
2023-02-18T01:04:30.633Z,10.10
2023-02-18T01:06:57.761Z,10.17
2023-02-18T01:09:25.929Z,10.23
2023-02-18T01:11:53.407Z,9.63
2023-02-18T01:14:20.515Z,9.10
2023-02-18T01:16:47.769Z,9.93
2023-02-18T01:19:14.979Z,9.23
2023-02-18T01:21:42.450Z,8.80
2023-02-18T01:24:09.660Z,8.73
2023-02-18T01:26:37.128Z,9.27
2023-02-18T01:29:04.371Z,9.23
2023-02-18T01:31:31.619Z,9.73
2023-02-18T01:33:58.731Z,8.60
2023-02-18T01:36:25.973Z,8.83
2023-02-18T01:38:55.607Z,8.50
2023-02-18T01:41:22.950Z,9.00
2023-02-18T01:44:28.747Z,8.57
2023-02-18T01:46:56.511Z,8.40
2023-02-18T01:49:34.200Z,8.30
2023-02-18T01:52:09.352Z,8.53
2023-02-18T01:54:49.389Z,8.27
2023-02-18T01:57:26.774Z,8.43
2023-02-18T02:00:00.195Z,8.60
2023-02-18T02:02:29.914Z,8.30
2023-02-18T02:04:58.132Z,8.00
2023-02-18T02:07:28.312Z,8.70
2023-02-18T02:09:58.766Z,8.63
2023-02-18T02:12:58.118Z,9.60
2023-02-18T02:15:52.966Z,8.27
2023-02-18T02:19:20.422Z,9.10
2023-02-18T02:22:24.907Z,8.50
2023-02-18T02:25:24.375Z,8.73
2023-02-18T02:28:15.533Z,9.00
2023-02-18T02:31:32.926Z,8.87
2023-02-18T02:34:06.006Z,8.10
2023-02-18T02:36:56.633Z,9.03
2023-02-18T02:39:36.586Z,9.10
2023-02-18T02:43:04.831Z,8.97
2023-02-18T02:46:25.562Z,8.80
2023-02-18T02:49:26.839Z,8.57
2023-02-18T02:52:18.125Z,9.57
2023-02-18T02:54:45.330Z,9.03
2023-02-18T02:57:12.282Z,9.80
2023-02-18T02:59:46.294Z,9.50
2023-02-18T03:02:52.682Z,9.20
2023-02-18T03:05:38.389Z,8.47
2023-02-18T03:08:27.921Z,9.40
2023-02-18T03:11:08.979Z,9.23
2023-02-18T03:13:52.881Z,8.73
2023-02-18T03:16:48.962Z,8.50
2023-02-18T03:19:43.388Z,8.63
2023-02-18T03:22:27.208Z,8.10
2023-02-18T03:24:58.146Z,7.67
2023-02-18T03:27:36.521Z,7.83
2023-02-18T03:30:14.183Z,7.10
2023-02-18T03:32:42.148Z,6.77
2023-02-18T03:35:17.341Z,6.60
2023-02-18T03:37:54.659Z,6.93
2023-02-18T03:40:22.036Z,6.03
2023-02-18T03:42:49.102Z,5.50
2023-02-18T03:45:16.235Z,5.43
2023-02-18T03:47:43.412Z,5.00
2023-02-18T03:50:10.718Z,5.00
2023-02-18T03:52:56.634Z,4.80
2023-02-18T03:55:24.135Z,4.50
2023-02-18T03:57:51.261Z,4.33
2023-02-18T04:00:19.439Z,3.90
2023-02-18T04:02:46.695Z,3.60
2023-02-18T04:05:16.899Z,3.60
2023-02-18T04:07:44.110Z,3.10
2023-02-18T04:10:12.141Z,2.93
2023-02-18T04:12:39.311Z,3.10
2023-02-18T04:15:07.095Z,2.87
2023-02-18T04:17:35.131Z,2.57
2023-02-18T04:20:04.998Z,2.30
2023-02-18T04:22:32.205Z,2.17
2023-02-18T04:25:00.694Z,2.00
2023-02-18T04:27:27.852Z,1.97
2023-02-18T04:29:55.063Z,2.07
2023-02-18T04:32:22.233Z,1.70
2023-02-18T04:34:49.357Z,1.73
2023-02-18T04:37:16.778Z,2.00
2023-02-18T04:39:43.963Z,1.50
2023-02-18T04:42:11.172Z,1.57
2023-02-18T04:44:38.441Z,1.53
2023-02-18T04:47:07.358Z,1.57
2023-02-18T04:49:35.189Z,1.60
2023-02-18T04:52:02.476Z,1.40
2023-02-18T04:54:29.842Z,1.47
2023-02-18T04:56:57.080Z,1.33
2023-02-18T05:00:01.722Z,1.40
2023-02-18T05:02:28.964Z,1.33
2023-02-18T05:04:56.171Z,1.50
2023-02-18T05:07:23.239Z,1.53
2023-02-18T05:09:50.478Z,1.40
2023-02-18T05:12:17.674Z,1.60
2023-02-18T05:14:45.284Z,1.60
2023-02-18T05:17:12.377Z,1.40
2023-02-18T05:19:39.489Z,1.40
2023-02-18T05:22:06.812Z,1.57
2023-02-18T05:24:33.976Z,1.60
2023-02-18T05:27:01.133Z,1.50
2023-02-18T05:29:28.384Z,1.40
2023-02-18T05:31:55.649Z,1.40
2023-02-18T05:34:23.019Z,1.60
2023-02-18T05:36:50.213Z,2.00
2023-02-18T05:39:17.352Z,1.73
2023-02-18T05:41:44.524Z,1.70
2023-02-18T05:44:30.513Z,2.20
2023-02-18T05:47:12.061Z,2.20
2023-02-18T05:49:41.732Z,1.73
2023-02-18T05:52:10.845Z,2.23
2023-02-18T05:54:39.421Z,1.70
2023-02-18T05:57:06.725Z,1.80
2023-02-18T05:59:34.174Z,2.03
2023-02-18T06:02:01.777Z,1.80
2023-02-18T06:04:29.068Z,1.73
2023-02-18T06:06:56.265Z,2.00
2023-02-18T06:09:23.443Z,1.70
2023-02-18T06:11:50.648Z,2.20
2023-02-18T06:14:18.295Z,1.60
2023-02-18T06:16:45.789Z,1.83
2023-02-18T06:19:13.189Z,1.80
2023-02-18T06:21:40.478Z,1.80
2023-02-18T06:24:08.218Z,1.73
2023-02-18T06:26:35.454Z,1.80
2023-02-18T06:29:02.700Z,2.27
2023-02-18T06:31:30.125Z,2.27
2023-02-18T06:33:57.578Z,2.13
2023-02-18T06:36:25.453Z,1.90
2023-02-18T06:38:54.373Z,2.00
2023-02-18T06:41:21.489Z,2.00
2023-02-18T06:43:48.798Z,2.03
2023-02-18T06:46:15.983Z,1.93
2023-02-18T06:48:43.150Z,2.10
2023-02-18T06:51:10.324Z,2.43
2023-02-18T06:53:37.541Z,2.10
2023-02-18T06:56:05.328Z,2.17
2023-02-18T06:58:32.463Z,2.20
2023-02-18T07:00:59.834Z,2.10
2023-02-18T07:03:27.242Z,1.93
2023-02-18T07:05:54.487Z,2.10
2023-02-18T07:08:21.930Z,2.37
2023-02-18T07:10:49.667Z,2.30
2023-02-18T07:13:16.908Z,2.13
2023-02-18T07:15:44.374Z,1.90
2023-02-18T07:18:11.628Z,1.60
2023-02-18T07:20:38.901Z,1.63
2023-02-18T07:23:06.347Z,1.60
2023-02-18T07:25:33.657Z,1.80
2023-02-18T07:28:01.268Z,2.00
2023-02-18T07:30:28.752Z,1.77
2023-02-18T07:37:09.941Z,1.67
2023-02-18T07:39:40.817Z,1.70
2023-02-18T07:42:09.318Z,1.63
2023-02-18T07:44:37.927Z,2.00
2023-02-18T07:47:07.701Z,1.90
2023-02-18T07:49:35.616Z,1.80
2023-02-18T07:52:04.545Z,2.30
2023-02-18T07:54:32.917Z,1.77
2023-02-18T07:57:00.321Z,2.07
2023-02-18T07:59:27.760Z,1.87
2023-02-18T08:01:55.649Z,2.23
2023-02-18T08:04:22.958Z,2.00
2023-02-18T08:07:13.602Z,1.97
2023-02-18T08:13:50.922Z,2.53
2023-02-18T08:16:21.732Z,2.93
2023-02-18T08:18:51.678Z,2.40
2023-02-18T08:25:29.401Z,2.73
2023-02-18T08:27:57.632Z,2.37
2023-02-18T08:30:25.804Z,2.77
2023-02-18T08:32:53.848Z,2.20
2023-02-18T08:35:21.661Z,2.57
2023-02-18T08:37:52.717Z,2.50
2023-02-18T08:40:22.221Z,2.20
2023-02-18T08:42:52.483Z,2.17
2023-02-18T08:45:20.309Z,2.50
2023-02-18T08:48:16.547Z,2.40
2023-02-18T08:50:35.261Z,2.50
2023-02-18T08:53:03.958Z,2.30
2023-02-18T08:55:34.143Z,2.30
2023-02-18T08:58:01.941Z,2.53
2023-02-18T09:00:29.545Z,2.43
2023-02-18T09:02:57.050Z,2.80
2023-02-18T09:05:27.908Z,2.60
2023-02-18T09:07:55.862Z,3.07
2023-02-18T09:10:23.910Z,3.20
2023-02-18T09:12:51.367Z,3.00
2023-02-18T09:15:18.877Z,3.23
2023-02-18T09:17:46.634Z,2.97
2023-02-18T09:20:20.287Z,2.67
2023-02-18T09:22:47.734Z,2.93
2023-02-18T09:25:14.951Z,2.90
2023-02-18T09:27:42.854Z,2.70
2023-02-18T09:30:11.301Z,2.97
2023-02-18T09:32:38.702Z,2.70
2023-02-18T09:35:06.557Z,2.70
2023-02-18T09:41:54.021Z,3.23
2023-02-18T09:44:28.094Z,2.93
2023-02-18T09:47:17.289Z,2.70
2023-02-18T09:50:00.415Z,2.90
2023-02-18T09:52:38.770Z,2.37
2023-02-18T09:55:25.826Z,2.73
2023-02-18T09:58:00.266Z,2.43
2023-02-18T10:00:37.075Z,2.60
2023-02-18T10:03:28.982Z,2.60
2023-02-18T10:06:15.912Z,2.73
2023-02-18T10:08:48.059Z,2.67
2023-02-18T10:11:28.732Z,2.23
2023-02-18T10:13:57.688Z,2.63
2023-02-18T10:16:29.148Z,2.20
2023-02-18T10:19:10.019Z,2.47
2023-02-18T10:21:38.203Z,2.77
2023-02-18T10:24:35.012Z,2.47
2023-02-18T10:27:07.408Z,2.93
2023-02-18T10:29:36.564Z,2.40
2023-02-18T10:32:23.490Z,2.97
2023-02-18T10:35:28.308Z,2.77
2023-02-18T10:38:18.841Z,2.47
2023-02-18T10:41:26.096Z,2.60
2023-02-18T10:44:25.340Z,3.10
2023-02-18T10:47:20.872Z,3.10
2023-02-18T10:50:02.573Z,2.43
2023-02-18T10:52:48.282Z,2.83
2023-02-18T10:55:18.975Z,2.80
2023-02-18T10:57:51.855Z,2.90
2023-02-18T11:00:26.978Z,3.10
2023-02-18T11:03:19.021Z,3.13
2023-02-18T11:05:48.992Z,2.90
2023-02-18T11:08:26.536Z,2.67
2023-02-18T11:10:56.467Z,2.67
2023-02-18T11:13:32.057Z,2.77
2023-02-18T11:16:05.163Z,2.97
2023-02-18T11:18:46.674Z,2.93
2023-02-18T11:21:38.752Z,2.80
2023-02-18T11:24:17.645Z,2.70
2023-02-18T11:26:45.125Z,2.70
2023-02-18T11:29:25.686Z,2.83
2023-02-18T11:31:56.966Z,2.80
2023-02-18T11:34:32.854Z,2.97
2023-02-18T11:37:33.106Z,3.20
2023-02-18T11:40:34.471Z,2.87
2023-02-18T11:43:20.914Z,2.67
2023-02-18T11:46:18.049Z,2.73
2023-02-18T11:48:46.711Z,2.80
2023-02-18T11:51:20.399Z,3.00
2023-02-18T11:54:31.685Z,3.50
2023-02-18T11:57:07.055Z,2.90
2023-02-18T11:59:38.916Z,3.10
2023-02-18T12:02:35.977Z,3.20
2023-02-18T12:05:21.473Z,2.80
2023-02-18T12:07:55.680Z,3.10
2023-02-18T12:10:46.565Z,3.17
2023-02-18T12:13:28.879Z,3.13
2023-02-18T12:16:36.623Z,3.27
2023-02-18T12:19:37.368Z,3.40
2023-02-18T12:22:44.714Z,3.33
2023-02-18T12:25:24.442Z,3.23
2023-02-18T12:28:25.487Z,3.17
2023-02-18T12:31:19.914Z,3.23
2023-02-18T12:33:47.003Z,3.60
2023-02-18T12:37:17.515Z,3.50
2023-02-18T12:40:21.602Z,3.23
2023-02-18T12:43:32.764Z,3.67
2023-02-18T12:46:26.040Z,3.40
2023-02-18T12:49:28.082Z,4.10
2023-02-18T12:52:21.022Z,3.80
2023-02-18T12:55:22.219Z,4.60
2023-02-18T12:58:26.343Z,4.50
2023-02-18T13:01:05.771Z,4.53
2023-02-18T13:03:56.730Z,5.83
2023-02-18T13:07:09.850Z,5.97
2023-02-18T13:14:17.192Z,6.03
2023-02-18T13:16:51.627Z,6.80
2023-02-18T13:20:00.322Z,6.70
2023-02-18T13:22:32.246Z,7.53
2023-02-18T13:25:00.874Z,7.43
2023-02-18T13:27:52.580Z,7.70
2023-02-18T13:35:12.079Z,8.13
2023-02-18T13:37:49.026Z,7.80
2023-02-18T13:41:13.018Z,9.57
2023-02-18T13:43:42.318Z,8.17
2023-02-18T13:46:28.955Z,8.60
2023-02-18T13:49:13.770Z,8.43
2023-02-18T13:52:20.464Z,9.37
2023-02-18T13:54:56.355Z,8.73
2023-02-18T13:57:40.496Z,9.13
2023-02-18T14:00:28.386Z,8.87
2023-02-18T14:03:21.115Z,8.87
2023-02-18T14:05:58.346Z,8.63
2023-02-18T14:08:39.249Z,9.20
2023-02-18T14:11:17.107Z,8.93
2023-02-18T14:17:30.209Z,9.03
2023-02-18T14:20:07.075Z,9.43
2023-02-18T14:22:56.109Z,10.27
2023-02-18T14:25:42.594Z,10.33
2023-02-18T14:28:34.878Z,9.47
2023-02-18T14:31:14.130Z,9.47
2023-02-18T14:33:51.813Z,9.37
2023-02-18T14:36:48.423Z,9.43
2023-02-18T14:39:46.380Z,9.57
2023-02-18T14:42:44.280Z,9.77
2023-02-18T14:45:46.508Z,10.03
2023-02-18T14:48:51.468Z,9.70
2023-02-18T14:51:24.261Z,8.87
2023-02-18T14:54:01.571Z,9.67
2023-02-18T15:00:47.338Z,7.37
2023-02-18T15:03:19.565Z,7.93
2023-02-18T15:05:56.759Z,8.00
2023-02-18T15:08:31.332Z,7.70
2023-02-18T15:11:15.868Z,7.33
2023-02-18T15:13:46.171Z,7.27
2023-02-18T15:20:47.371Z,6.77
2023-02-18T15:27:47.791Z,6.10
2023-02-18T15:30:20.126Z,6.03
2023-02-18T15:33:00.672Z,6.37
2023-02-18T15:35:31.694Z,6.00
2023-02-18T15:38:01.434Z,6.20
2023-02-18T15:40:53.745Z,5.67
2023-02-18T15:43:30.189Z,5.77
2023-02-18T15:45:59.522Z,5.57
2023-02-18T15:48:45.391Z,5.10
2023-02-18T15:51:19.809Z,5.33
2023-02-18T15:53:52.681Z,5.50
2023-02-18T15:56:41.444Z,5.47
2023-02-18T15:59:28.345Z,5.70
2023-02-18T16:02:14.969Z,5.47
2023-02-18T16:04:47.172Z,5.20
2023-02-18T16:07:22.306Z,5.70
2023-02-18T16:09:49.923Z,5.60
2023-02-18T16:12:32.604Z,5.40
2023-02-18T16:15:01.141Z,5.33
2023-02-18T16:18:24.669Z,5.30
2023-02-18T16:21:06.482Z,4.80
2023-02-18T16:23:46.116Z,5.53
2023-02-18T16:26:43.718Z,5.13
2023-02-18T16:29:24.911Z,5.50
2023-02-18T16:31:53.204Z,5.17
2023-02-18T16:34:20.705Z,5.30
2023-02-18T16:37:06.498Z,5.10
2023-02-18T16:39:35.556Z,5.30
2023-02-18T16:42:03.290Z,4.93
2023-02-18T16:44:33.583Z,5.47
2023-02-18T16:47:01.416Z,5.57
2023-02-18T16:49:30.894Z,5.40
2023-02-18T16:52:01.526Z,5.47
2023-02-18T16:54:29.260Z,6.23
2023-02-18T16:56:56.563Z,6.00
2023-02-18T16:59:23.883Z,5.90
2023-02-18T17:01:51.140Z,5.43
2023-02-18T17:04:38.471Z,5.63
2023-02-18T17:07:11.459Z,5.40
2023-02-18T17:09:38.848Z,5.60
2023-02-18T17:12:06.416Z,5.63
2023-02-18T17:14:33.877Z,5.43
2023-02-18T17:17:01.134Z,5.80
2023-02-18T17:19:28.456Z,5.37
2023-02-18T17:21:56.683Z,5.43
2023-02-18T17:24:23.945Z,5.70
2023-02-18T17:26:51.103Z,5.40
2023-02-18T17:29:19.747Z,5.17
2023-02-18T17:31:49.441Z,5.90
2023-02-18T17:34:26.269Z,6.00
2023-02-18T17:36:54.294Z,5.23
2023-02-18T17:39:21.823Z,4.73
2023-02-18T17:41:49.103Z,5.90
2023-02-18T17:44:18.570Z,5.60
2023-02-18T17:46:46.621Z,5.00
2023-02-18T17:49:13.725Z,6.13
2023-02-18T17:51:41.290Z,6.70
2023-02-18T17:54:15.721Z,6.23
2023-02-18T17:56:47.316Z,7.20
2023-02-18T17:59:15.233Z,6.97
2023-02-18T18:01:43.448Z,6.63
2023-02-18T18:04:16.835Z,6.00
2023-02-18T18:06:45.845Z,5.93
2023-02-18T18:09:13.528Z,6.00
2023-02-18T18:11:42.166Z,6.83
2023-02-18T18:14:15.197Z,6.60
2023-02-18T18:16:42.674Z,6.77
2023-02-18T18:19:09.813Z,6.90
2023-02-18T18:21:56.943Z,6.87
2023-02-18T18:24:24.236Z,7.83
2023-02-18T18:26:53.475Z,7.50
2023-02-18T18:29:20.574Z,7.63
2023-02-18T18:31:48.118Z,7.73
2023-02-18T18:34:19.513Z,8.70
2023-02-18T18:37:45.138Z,7.07
2023-02-18T18:40:12.417Z,7.63
2023-02-18T18:42:44.197Z,7.20
2023-02-18T18:45:34.426Z,7.50
2023-02-18T18:48:02.062Z,7.60
2023-02-18T18:50:29.668Z,7.13
2023-02-18T18:52:57.097Z,6.60
2023-02-18T18:55:36.136Z,7.50
2023-02-18T18:58:03.874Z,7.07
2023-02-18T19:00:42.288Z,7.00
2023-02-18T19:03:12.977Z,6.93
2023-02-18T19:09:51.978Z,6.23
2023-02-18T19:12:19.754Z,6.97
2023-02-18T19:18:59.969Z,7.10
2023-02-18T19:21:28.071Z,6.73
2023-02-18T19:23:56.229Z,6.73
2023-02-18T19:26:24.990Z,7.60
2023-02-18T19:28:52.401Z,6.90
2023-02-18T19:31:24.750Z,7.03
2023-02-18T19:33:55.281Z,7.57
2023-02-18T19:36:23.062Z,6.80
2023-02-18T19:42:51.728Z,7.10
2023-02-18T19:45:21.213Z,7.00
2023-02-18T19:52:06.025Z,8.30
2023-02-18T19:58:35.005Z,7.90
2023-02-18T20:01:05.804Z,8.00
2023-02-18T20:07:43.417Z,7.93
2023-02-18T20:11:08.482Z,8.27
2023-02-18T20:13:35.809Z,8.50
2023-02-18T20:16:07.673Z,8.70
2023-02-18T20:18:35.049Z,8.60
2023-02-18T20:21:02.727Z,8.17
2023-02-18T20:23:30.035Z,8.80
2023-02-18T20:25:57.496Z,8.77
2023-02-18T20:28:24.716Z,8.77
2023-02-18T20:31:10.462Z,9.17
2023-02-18T20:33:39.102Z,8.60
2023-02-18T20:36:08.701Z,8.10
2023-02-18T20:38:39.270Z,9.83
2023-02-18T20:41:09.886Z,8.80
2023-02-18T20:43:38.071Z,9.33
2023-02-18T20:46:08.677Z,8.83
2023-02-18T20:48:37.016Z,9.33
2023-02-18T20:51:12.072Z,9.60
2023-02-18T20:53:42.395Z,9.37
2023-02-18T20:56:10.098Z,9.33
2023-02-18T20:58:37.442Z,9.87
2023-02-18T21:01:12.607Z,9.40
2023-02-18T21:03:41.646Z,9.10
2023-02-18T21:06:16.436Z,8.73
2023-02-18T21:08:46.515Z,8.43
2023-02-18T21:11:19.656Z,9.33
2023-02-18T21:13:50.113Z,8.60
2023-02-18T21:16:19.621Z,8.97
2023-02-18T21:18:47.915Z,8.30
2023-02-18T21:21:16.380Z,9.37
2023-02-18T21:23:44.228Z,8.67
2023-02-18T21:26:18.837Z,9.30
2023-02-18T21:28:56.752Z,8.63
2023-02-18T21:31:29.401Z,8.73
2023-02-18T21:33:57.040Z,9.60
2023-02-18T21:36:25.542Z,8.80
2023-02-18T21:38:58.873Z,9.07
2023-02-18T21:41:28.030Z,9.57
2023-02-18T21:43:55.439Z,9.27
2023-02-18T21:46:26.973Z,9.80
2023-02-18T21:49:09.448Z,9.93
2023-02-18T21:52:08.677Z,9.47
2023-02-18T21:54:42.112Z,9.60
2023-02-18T21:57:22.192Z,10.10
2023-02-18T21:59:49.544Z,9.40
2023-02-18T22:02:45.971Z,9.10
2023-02-18T22:05:13.130Z,8.77
2023-02-18T22:07:40.445Z,9.13
2023-02-18T22:10:14.097Z,8.83
2023-02-18T22:12:44.363Z,8.73
2023-02-18T22:15:12.088Z,9.27
2023-02-18T22:18:35.840Z,9.50
2023-02-18T22:21:12.598Z,8.67
2023-02-18T22:23:40.695Z,9.00
2023-02-18T22:26:10.969Z,9.47
2023-02-18T22:28:38.197Z,9.47
2023-02-18T22:31:13.829Z,8.60
2023-02-18T22:33:43.939Z,8.40
2023-02-18T22:36:12.001Z,9.13
2023-02-18T22:38:40.145Z,9.23
2023-02-18T22:41:11.309Z,8.90
2023-02-18T22:43:42.705Z,9.30
2023-02-18T22:46:17.155Z,8.83
2023-02-18T22:48:48.295Z,8.57
2023-02-18T22:51:25.179Z,8.63
2023-02-18T22:53:55.875Z,9.23
2023-02-18T22:56:26.560Z,8.50
2023-02-18T22:58:56.969Z,9.00
2023-02-18T23:01:38.574Z,8.40
2023-02-18T23:04:12.881Z,8.77
2023-02-18T23:06:44.901Z,8.77
2023-02-18T23:09:23.081Z,8.93
2023-02-18T23:11:56.518Z,8.00
2023-02-18T23:14:29.734Z,9.03
2023-02-18T23:17:15.124Z,8.37
2023-02-18T23:19:46.841Z,8.37
2023-02-18T23:26:55.618Z,9.13
2023-02-18T23:29:25.632Z,9.10
2023-02-18T23:31:53.590Z,8.97
2023-02-18T23:34:21.693Z,8.47
2023-02-18T23:36:52.852Z,8.57
2023-02-18T23:39:24.540Z,9.13
2023-02-18T23:41:53.047Z,8.50
2023-02-18T23:48:32.268Z,8.80
2023-02-18T23:55:10.994Z,8.30
2023-02-18T23:57:41.778Z,8.90
